createdAt,value
2023-02-21T00:12:55.063Z,142.78557
2023-02-21T00:27:57.332Z,104.17061
2023-02-21T00:42:59.613Z,41.30903
2023-02-21T00:58:01.830Z,40.41101
2023-02-21T01:13:04.321Z,67.35168
2023-02-21T01:28:06.634Z,4.49011
2023-02-21T01:43:09.555Z,0
2023-02-21T01:58:11.811Z,0
2023-02-21T02:13:14.093Z,0
2023-02-21T02:28:16.302Z,0
2023-02-21T02:43:18.610Z,0
2023-02-21T02:58:21.334Z,0
2023-02-21T03:13:23.686Z,0
2023-02-21T03:28:26.169Z,0
2023-02-21T03:43:28.393Z,0
2023-02-21T03:58:30.776Z,0
2023-02-21T04:13:33.081Z,0
2023-02-21T04:28:35.326Z,0
2023-02-21T04:43:37.641Z,0
2023-02-21T04:58:45.373Z,0
2023-02-21T05:13:48.127Z,0
2023-02-21T05:28:50.504Z,0
2023-02-21T05:43:52.734Z,0
2023-02-21T05:58:55.213Z,0
2023-02-21T06:13:57.568Z,0
2023-02-21T06:28:59.841Z,0
2023-02-21T06:44:02.108Z,0
2023-02-21T06:59:04.524Z,0
2023-02-21T07:14:06.764Z,0
2023-02-21T07:29:09.142Z,0
2023-02-21T07:44:11.419Z,0
2023-02-21T07:59:13.730Z,0
2023-02-21T08:14:16.022Z,0
2023-02-21T08:29:23.233Z,0
2023-02-21T08:44:25.441Z,0
2023-02-21T08:59:27.857Z,0
2023-02-21T09:14:30.166Z,0
2023-02-21T09:29:44.830Z,0
2023-02-21T09:44:48.573Z,0
2023-02-21T09:59:55.948Z,0
2023-02-21T10:14:58.190Z,0
2023-02-21T10:30:00.497Z,0
2023-02-21T10:45:02.857Z,0
2023-02-21T11:00:05.155Z,0
2023-02-21T11:15:07.634Z,0
2023-02-21T11:30:10.218Z,0
2023-02-21T11:45:13.276Z,0
2023-02-21T12:00:15.598Z,0
2023-02-21T12:15:17.880Z,0
2023-02-21T12:30:20.192Z,0
2023-02-21T12:45:22.727Z,0
2023-02-21T13:00:25.017Z,0
2023-02-21T13:15:27.321Z,0
2023-02-21T13:30:29.578Z,0
2023-02-21T13:45:31.874Z,0
2023-02-21T14:00:34.254Z,0
2023-02-21T14:15:36.527Z,0
2023-02-21T14:30:38.825Z,5.38813
2023-02-21T14:45:41.129Z,27.8387
2023-02-21T15:00:43.454Z,77.22993
2023-02-21T15:15:45.746Z,170.62427
2023-02-21T15:30:48.049Z,306.22568
2023-02-21T15:45:51.430Z,458.8895
2023-02-21T16:00:53.819Z,594.49091
2023-02-21T16:15:56.117Z,738.1745
2023-02-21T16:30:58.469Z,992.31482
2023-02-21T16:46:00.899Z,1250.04724
2023-02-21T17:01:08.426Z,1455.69446
2023-02-21T17:16:10.737Z,1492.51331
2023-02-21T17:31:13.052Z,1434.14185
2023-02-21T17:46:15.372Z,1357.80994
2023-02-21T18:01:17.819Z,1423.3656
2023-02-21T18:16:20.185Z,1434.14185
2023-02-21T18:31:22.628Z,1360.50403
2023-02-21T18:46:24.936Z,1208.73828
2023-02-21T19:01:27.311Z,1033.6239
2023-02-21T19:16:29.651Z,974.35437
2023-02-21T19:31:32.065Z,860.30554
2023-02-21T19:46:34.397Z,706.74371
2023-02-21T20:01:36.776Z,454.39938
2023-02-21T20:16:39.134Z,432.84683
2023-02-21T20:31:41.496Z,647.47418
2023-02-21T20:46:43.817Z,694.17139
2023-02-21T21:01:46.088Z,1127.01819
2023-02-21T21:16:48.315Z,1618.23645
2023-02-21T21:31:50.782Z,2195.66504
2023-02-21T21:46:53.025Z,3124.22021
2023-02-21T22:01:55.292Z,3921.66406
2023-02-21T22:16:57.572Z,4320.38623
2023-02-21T22:31:59.853Z,4572.73047
2023-02-21T22:47:02.255Z,4426.35254
2023-02-21T23:02:04.520Z,4367.0835
2023-02-21T23:17:06.776Z,3628.01074
2023-02-21T23:32:09.386Z,2976.04639
2023-02-21T23:47:12.149Z,2197.46094
